sensor_id;sensor_type;location;lat;lon;timestamp;pressure;altitude;pressure_sealevel;temperature;humidity
74427;BME280;62859;53.906;27.430;2023-02-10T00:01:25;1019.6;;;0.4;52.6
74427;BME280;62859;53.906;27.430;2023-02-10T00:07:00;1019.5;;;0.3;52.7
74427;BME280;62859;53.906;27.430;2023-02-10T00:11:34;1019.4;;;0.3;52.6
74427;BME280;62859;53.906;27.430;2023-02-10T00:16:49;1019.4;;;0.4;52.4
74427;BME280;62859;53.906;27.430;2023-02-10T00:21:47;1019.4;;;0.4;52.4
74427;BME280;62859;53.906;27.430;2023-02-10T00:27:01;1019.5;;;0.5;52.4
74427;BME280;62859;53.906;27.430;2023-02-10T00:31:24;1019.5;;;0.5;52.4
74427;BME280;62859;53.906;27.430;2023-02-10T00:36:11;1019.3;;;0.4;52.6
74427;BME280;62859;53.906;27.430;2023-02-10T00:42:00;1019.1;;;0.5;52.4
74427;BME280;62859;53.906;27.430;2023-02-10T00:46:34;1019;;;0.5;52.4
74427;BME280;62859;53.906;27.430;2023-02-10T00:51:48;1019;;;0.6;52.5
74427;BME280;62859;53.906;27.430;2023-02-10T00:56:58;1018.9;;;0.6;52.4
74427;BME280;62859;53.906;27.430;2023-02-10T01:01:56;1018.8;;;0.7;52.1
74427;BME280;62859;53.906;27.430;2023-02-10T01:06:18;1018.7;;;0.7;52
74427;BME280;62859;53.906;27.430;2023-02-10T01:11:50;1018.5;;;0.7;51.9
74427;BME280;62859;53.906;27.430;2023-02-10T01:16:25;1018.3;;;0.7;51.8
74427;BME280;62859;53.906;27.430;2023-02-10T01:21:11;1018.2;;;0.7;51.9
74427;BME280;62859;53.906;27.430;2023-02-10T01:26:36;1018.1;;;0.6;52.2
74427;BME280;62859;53.906;27.430;2023-02-10T01:31:34;1017.8;;;0.6;52.4
74427;BME280;62859;53.906;27.430;2023-02-10T01:36:11;1017.6;;;0.6;52.5
74427;BME280;62859;53.906;27.430;2023-02-10T01:41:32;1017.5;;;0.5;52.8
74427;BME280;62859;53.906;27.430;2023-02-10T01:46:25;1017.5;;;0.3;53.3
74427;BME280;62859;53.906;27.430;2023-02-10T01:51:59;1017.3;;;0.4;53.3
74427;BME280;62859;53.906;27.430;2023-02-10T01:56:38;1017.3;;;0.3;53.5
74427;BME280;62859;53.906;27.430;2023-02-10T02:01:33;1017.3;;;0.4;53.5
74427;BME280;62859;53.906;27.430;2023-02-10T02:07:00;1017.1;;;0.4;53.3
74427;BME280;62859;53.906;27.430;2023-02-10T02:11:48;1017.2;;;0.4;53.5
74427;BME280;62859;53.906;27.430;2023-02-10T02:16:42;1017.3;;;0.4;53.5
74427;BME280;62859;53.906;27.430;2023-02-10T02:21:39;1017.3;;;0.5;53.6
74427;BME280;62859;53.906;27.430;2023-02-10T02:26:28;1017.2;;;0.6;53.4
74427;BME280;62859;53.906;27.430;2023-02-10T02:31:44;1017.1;;;0.6;53.2
74427;BME280;62859;53.906;27.430;2023-02-10T02:36:59;1017;;;0.7;53.1
74427;BME280;62859;53.906;27.430;2023-02-10T02:42:10;1016.9;;;0.7;53.2
74427;BME280;62859;53.906;27.430;2023-02-10T02:47:02;1016.8;;;0.8;52.9
74427;BME280;62859;53.906;27.430;2023-02-10T02:51:25;1016.8;;;0.8;52.6
74427;BME280;62859;53.906;27.430;2023-02-10T02:57:02;1016.5;;;0.8;52.7
74427;BME280;62859;53.906;27.430;2023-02-10T03:01:25;1016.4;;;0.7;53
74427;BME280;62859;53.906;27.430;2023-02-10T03:06:44;1016.4;;;0.7;52.9
74427;BME280;62859;53.906;27.430;2023-02-10T03:11:10;1016.5;;;0.7;53.1
74427;BME280;62859;53.906;27.430;2023-02-10T03:17:01;1016.5;;;0.7;53
74427;BME280;62859;53.906;27.430;2023-02-10T03:21:32;1016.3;;;0.7;53.1
74427;BME280;62859;53.906;27.430;2023-02-10T03:26:59;1016.2;;;0.7;53.2
74427;BME280;62859;53.906;27.430;2023-02-10T03:31:58;1016.1;;;0.7;53.1
74427;BME280;62859;53.906;27.430;2023-02-10T03:36:49;1016.2;;;0.7;53.1
74427;BME280;62859;53.906;27.430;2023-02-10T03:41:44;1016.2;;;0.7;52.9
74427;BME280;62859;53.906;27.430;2023-02-10T03:46:22;1016.2;;;0.7;52.8
74427;BME280;62859;53.906;27.430;2023-02-10T03:51:48;1016.1;;;0.7;53.1
74427;BME280;62859;53.906;27.430;2023-02-10T03:56:24;1015.9;;;0.7;53.1
74427;BME280;62859;53.906;27.430;2023-02-10T04:01:42;1015.9;;;0.7;52.9
74427;BME280;62859;53.906;27.430;2023-02-10T04:06:39;1015.7;;;0.6;53.1
74427;BME280;62859;53.906;27.430;2023-02-10T04:11:45;1015.6;;;0.5;53.1
74427;BME280;62859;53.906;27.430;2023-02-10T04:16:36;1015.6;;;0.4;53.4
74427;BME280;62859;53.906;27.430;2023-02-10T04:21:58;1015.6;;;0.4;53.5
74427;BME280;62859;53.906;27.430;2023-02-10T04:26:48;1015.6;;;0.3;53.5
74427;BME280;62859;53.906;27.430;2023-02-10T04:31:45;1015.6;;;0.3;53.4
74427;BME280;62859;53.906;27.430;2023-02-10T04:36:59;1015.6;;;0.3;53.6
74427;BME280;62859;53.906;27.430;2023-02-10T04:41:11;1015.6;;;0.4;53.6
74427;BME280;62859;53.906;27.430;2023-02-10T04:46:47;1015.5;;;0.4;53.4
74427;BME280;62859;53.906;27.430;2023-02-10T04:51:11;1015.4;;;0.4;53.2
74427;BME280;62859;53.906;27.430;2023-02-10T04:56:49;1015.3;;;0.4;53.4
74427;BME280;62859;53.906;27.430;2023-02-10T05:01:24;1015.1;;;0.3;53.5
74427;BME280;62859;53.906;27.430;2023-02-10T05:06:58;1015.3;;;0.3;53.5
74427;BME280;62859;53.906;27.430;2023-02-10T05:11:11;1015.3;;;0.4;53.4
74427;BME280;62859;53.906;27.430;2023-02-10T05:16:46;1015.2;;;0.4;53.1
74427;BME280;62859;53.906;27.430;2023-02-10T05:21:49;1015.2;;;0.4;53.3
74427;BME280;62859;53.906;27.430;2023-02-10T05:26:58;1015.2;;;0.4;53.2
74427;BME280;62859;53.906;27.430;2023-02-10T05:31:10;1015;;;0.3;53.3
74427;BME280;62859;53.906;27.430;2023-02-10T05:36:11;1015.2;;;0.2;53.5
74427;BME280;62859;53.906;27.430;2023-02-10T05:41:59;1015.1;;;0.2;53.3
74427;BME280;62859;53.906;27.430;2023-02-10T05:46:30;1015.2;;;0.2;53.2
74427;BME280;62859;53.906;27.430;2023-02-10T05:51:49;1015.4;;;0.2;53.1
74427;BME280;62859;53.906;27.430;2023-02-10T05:56:58;1015.3;;;0.3;52.9
74427;BME280;62859;53.906;27.430;2023-02-10T06:01:59;1015.2;;;0.4;52.4
74427;BME280;62859;53.906;27.430;2023-02-10T06:06:48;1015.2;;;0.4;52.3
74427;BME280;62859;53.906;27.430;2023-02-10T06:11:38;1015.1;;;0.4;52.5
74427;BME280;62859;53.906;27.430;2023-02-10T06:16:45;1015.1;;;0.5;51.9
74427;BME280;62859;53.906;27.430;2023-02-10T06:21:58;1015.1;;;0.6;52.3
74427;BME280;62859;53.906;27.430;2023-02-10T06:26:32;1015.1;;;0.4;51.9
74427;BME280;62859;53.906;27.430;2023-02-10T06:31:10;1014.9;;;0.5;51.9
74427;BME280;62859;53.906;27.430;2023-02-10T06:36:58;1014.9;;;0.7;52.2
74427;BME280;62859;53.906;27.430;2023-02-10T06:41:10;1014.9;;;1.1;53.7
74427;BME280;62859;53.906;27.430;2023-02-10T06:46:48;1014.8;;;2;48.7
74427;BME280;62859;53.906;27.430;2023-02-10T06:52:01;1014.8;;;1.8;48.5
74427;BME280;62859;53.906;27.430;2023-02-10T06:56:59;1014.9;;;1.7;48.6
74427;BME280;62859;53.906;27.430;2023-02-10T07:01:21;1015;;;1.6;48.7
74427;BME280;62859;53.906;27.430;2023-02-10T07:06:59;1015.1;;;1.5;49.1
74427;BME280;62859;53.906;27.430;2023-02-10T07:11:21;1015.1;;;1.3;49.4
74427;BME280;62859;53.906;27.430;2023-02-10T07:16:10;1014.9;;;1.1;49.5
74427;BME280;62859;53.906;27.430;2023-02-10T07:21:34;1015;;;1;50.1
74427;BME280;62859;53.906;27.430;2023-02-10T07:26:25;1015;;;1.1;50.2
74427;BME280;62859;53.906;27.430;2023-02-10T07:31:21;1014.9;;;1.2;49.9
74427;BME280;62859;53.906;27.430;2023-02-10T07:36:47;1014.7;;;1.3;49.9
74427;BME280;62859;53.906;27.430;2023-02-10T07:41:23;1014.8;;;1.4;49.9
74427;BME280;62859;53.906;27.430;2023-02-10T07:47:01;1014.7;;;1.4;49.9
74427;BME280;62859;53.906;27.430;2023-02-10T07:51:35;1014.7;;;1.4;49.9
74427;BME280;62859;53.906;27.430;2023-02-10T07:56:11;1014.9;;;1.3;50
74427;BME280;62859;53.906;27.430;2023-02-10T08:01:56;1014.8;;;1.4;50.1
74427;BME280;62859;53.906;27.430;2023-02-10T08:06:44;1014.8;;;1.5;50.3
74427;BME280;62859;53.906;27.430;2023-02-10T08:11:25;1014.9;;;1.5;49.8
74427;BME280;62859;53.906;27.430;2023-02-10T08:16:35;1014.8;;;1.5;49.8
74427;BME280;62859;53.906;27.430;2023-02-10T08:21:11;1014.9;;;1.6;50.2
74427;BME280;62859;53.906;27.430;2023-02-10T08:26:21;1014.9;;;1.7;50.7
74427;BME280;62859;53.906;27.430;2023-02-10T08:31:57;1014.8;;;1.7;49.8
74427;BME280;62859;53.906;27.430;2023-02-10T08:36:35;1014.9;;;1.7;50.1
74427;BME280;62859;53.906;27.430;2023-02-10T08:41:59;1014.9;;;1.7;50.5
74427;BME280;62859;53.906;27.430;2023-02-10T08:46:37;1014.9;;;1.6;51
74427;BME280;62859;53.906;27.430;2023-02-10T08:51:59;1014.7;;;1.7;51.1
74427;BME280;62859;53.906;27.430;2023-02-10T08:56:13;1014.6;;;1.7;51.3
74427;BME280;62859;53.906;27.430;2023-02-10T09:01:41;1014.6;;;1.8;51.3
74427;BME280;62859;53.906;27.430;2023-02-10T09:06:12;1014.5;;;1.9;51.4
74427;BME280;62859;53.906;27.430;2023-02-10T09:11:57;1014.5;;;1.9;51.3
74427;BME280;62859;53.906;27.430;2023-02-10T09:16:21;1014.5;;;2.1;51.2
74427;BME280;62859;53.906;27.430;2023-02-10T09:21:59;1014.5;;;2.2;50.9
74427;BME280;62859;53.906;27.430;2023-02-10T09:27:01;1014.6;;;2.4;50.7
74427;BME280;62859;53.906;27.430;2023-02-10T09:31:43;1014.6;;;2.4;50.5
74427;BME280;62859;53.906;27.430;2023-02-10T09:36:45;1014.6;;;2.5;50.6
74427;BME280;62859;53.906;27.430;2023-02-10T09:41:13;1014.7;;;2.4;50.6
74427;BME280;62859;53.906;27.430;2023-02-10T09:46:50;1014.7;;;2.4;51
74427;BME280;62859;53.906;27.430;2023-02-10T09:51:11;1014.7;;;2.3;51.1
74427;BME280;62859;53.906;27.430;2023-02-10T09:56:47;1014.7;;;2.3;51.4
74427;BME280;62859;53.906;27.430;2023-02-10T10:01:24;1014.7;;;2.3;51.4
74427;BME280;62859;53.906;27.430;2023-02-10T10:07:03;1014.7;;;2.4;51.6
74427;BME280;62859;53.906;27.430;2023-02-10T10:11:36;1014.8;;;2.4;51.9
74427;BME280;62859;53.906;27.430;2023-02-10T10:17:04;1014.9;;;2.4;51.9
74427;BME280;62859;53.906;27.430;2023-02-10T10:21:51;1014.7;;;2.4;52.2
74427;BME280;62859;53.906;27.430;2023-02-10T10:26:40;1014.7;;;2.4;52.4
74427;BME280;62859;53.906;27.430;2023-02-10T10:31:45;1014.8;;;2.4;52.4
74427;BME280;62859;53.906;27.430;2023-02-10T10:36:40;1014.8;;;2.5;52.5
74427;BME280;62859;53.906;27.430;2023-02-10T10:41:49;1014.8;;;2.6;53.5
74427;BME280;62859;53.906;27.430;2023-02-10T10:46:11;1014.8;;;2.9;51.8
74427;BME280;62859;53.906;27.430;2023-02-10T10:51:37;1014.8;;;3;51.8
74427;BME280;62859;53.906;27.430;2023-02-10T10:56:27;1014.9;;;2.8;52.2
74427;BME280;62859;53.906;27.430;2023-02-10T11:01:43;1014.9;;;2.7;52.6
74427;BME280;62859;53.906;27.430;2023-02-10T11:06:33;1014.9;;;2.6;53
74427;BME280;62859;53.906;27.430;2023-02-10T11:12:01;1014.9;;;2.7;53.3
74427;BME280;62859;53.906;27.430;2023-02-10T11:16:43;1014.9;;;2.7;53.3
74427;BME280;62859;53.906;27.430;2023-02-10T11:21:47;1014.8;;;2.7;53.4
74427;BME280;62859;53.906;27.430;2023-02-10T11:26:59;1014.7;;;2.8;53.3
74427;BME280;62859;53.906;27.430;2023-02-10T11:31:27;1014.8;;;2.9;53.3
74427;BME280;62859;53.906;27.430;2023-02-10T11:37:09;1014.8;;;2.9;53.4
74427;BME280;62859;53.906;27.430;2023-02-10T11:41:27;1015;;;2.9;53.7
74427;BME280;62859;53.906;27.430;2023-02-10T11:46:53;1015;;;2.8;54.1
74427;BME280;62859;53.906;27.430;2023-02-10T11:51:12;1015;;;2.7;54.5
74427;BME280;62859;53.906;27.430;2023-02-10T11:57:04;1015.1;;;2.8;54.6
74427;BME280;62859;53.906;27.430;2023-02-10T12:01:13;1015.1;;;2.8;54.8
74427;BME280;62859;53.906;27.430;2023-02-10T12:06:50;1015;;;2.9;54.8
74427;BME280;62859;53.906;27.430;2023-02-10T12:11:49;1015;;;2.9;55.1
74427;BME280;62859;53.906;27.430;2023-02-10T12:17:02;1014.8;;;2.9;55.1
74427;BME280;62859;53.906;27.430;2023-02-10T12:21:39;1014.8;;;2.9;55.2
74427;BME280;62859;53.906;27.430;2023-02-10T12:26:23;1014.9;;;3;55.2
74427;BME280;62859;53.906;27.430;2023-02-10T12:31:59;1014.9;;;3.1;55.1
74427;BME280;62859;53.906;27.430;2023-02-10T12:36:26;1014.8;;;3.2;55
74427;BME280;62859;53.906;27.430;2023-02-10T12:42:02;1014.9;;;3.2;55.1
74427;BME280;62859;53.906;27.430;2023-02-10T12:46:49;1015;;;3.2;55.6
74427;BME280;62859;53.906;27.430;2023-02-10T12:52:01;1015;;;3.3;55.4
74427;BME280;62859;53.906;27.430;2023-02-10T12:56:21;1015;;;3.3;55.3
74427;BME280;62859;53.906;27.430;2023-02-10T13:01:58;1015;;;3.3;55.2
74427;BME280;62859;53.906;27.430;2023-02-10T13:06:16;1015.1;;;3.3;55.3
74427;BME280;62859;53.906;27.430;2023-02-10T13:11:11;1015;;;3.4;55.2
74427;BME280;62859;53.906;27.430;2023-02-10T13:16:35;1014.9;;;3.6;55.2
74427;BME280;62859;53.906;27.430;2023-02-10T13:21:39;1015;;;3.6;54.7
74427;BME280;62859;53.906;27.430;2023-02-10T13:26:41;1015;;;3.7;54.4
74427;BME280;62859;53.906;27.430;2023-02-10T13:31:20;1015;;;3.8;54.1
74427;BME280;62859;53.906;27.430;2023-02-10T13:36:25;1015.2;;;3.9;53.9
74427;BME280;62859;53.906;27.430;2023-02-10T13:42:04;1015.3;;;3.9;53.6
74427;BME280;62859;53.906;27.430;2023-02-10T13:46:39;1015.3;;;3.9;53.7
74427;BME280;62859;53.906;27.430;2023-02-10T13:51:11;1015.4;;;3.8;53.8
74427;BME280;62859;53.906;27.430;2023-02-10T13:57:01;1015.5;;;3.8;53.8
74427;BME280;62859;53.906;27.430;2023-02-10T14:01:37;1015.6;;;3.7;54.1
74427;BME280;62859;53.906;27.430;2023-02-10T14:06:31;1015.8;;;3.7;54.3
74427;BME280;62859;53.906;27.430;2023-02-10T14:11:25;1015.8;;;3.7;54.3
74427;BME280;62859;53.906;27.430;2023-02-10T14:16:38;1015.8;;;3.6;54
74427;BME280;62859;53.906;27.430;2023-02-10T14:21:49;1015.7;;;3.5;54.2
74427;BME280;62859;53.906;27.430;2023-02-10T14:26:13;1015.8;;;3.6;54
74427;BME280;62859;53.906;27.430;2023-02-10T14:31:11;1015.8;;;3.6;53.8
74427;BME280;62859;53.906;27.430;2023-02-10T14:37:00;1016;;;3.5;53.6
74427;BME280;62859;53.906;27.430;2023-02-10T14:41:11;1016.1;;;3.5;53.5
74427;BME280;62859;53.906;27.430;2023-02-10T14:46:49;1016.3;;;3.5;53.7
74427;BME280;62859;53.906;27.430;2023-02-10T14:52:01;1016.3;;;3.5;53.9
74427;BME280;62859;53.906;27.430;2023-02-10T14:57:01;1016.4;;;3.5;53.8
74427;BME280;62859;53.906;27.430;2023-02-10T15:01:13;1016.3;;;3.5;53.7
74427;BME280;62859;53.906;27.430;2023-02-10T15:06:35;1016.3;;;3.6;53.6
74427;BME280;62859;53.906;27.430;2023-02-10T15:11:21;1016.3;;;3.6;53.5
74427;BME280;62859;53.906;27.430;2023-02-10T15:16:25;1016.4;;;3.7;53.5
74427;BME280;62859;53.906;27.430;2023-02-10T15:21:59;1016.4;;;3.6;53.1
74427;BME280;62859;53.906;27.430;2023-02-10T15:26:16;1016.3;;;3.5;53.5
74427;BME280;62859;53.906;27.430;2023-02-10T15:32:01;1016.4;;;3.6;53.7
74427;BME280;62859;53.906;27.430;2023-02-10T15:36:14;1016.5;;;3.6;54
74427;BME280;62859;53.906;27.430;2023-02-10T15:42:01;1016.6;;;3.5;54.3
74427;BME280;62859;53.906;27.430;2023-02-10T15:46:35;1016.6;;;3.5;54.4
74427;BME280;62859;53.906;27.430;2023-02-10T15:51:38;1016.6;;;3.5;54.7
74427;BME280;62859;53.906;27.430;2023-02-10T15:56:25;1016.7;;;3.5;55
74427;BME280;62859;53.906;27.430;2023-02-10T16:01:49;1016.7;;;3.5;55.2
74427;BME280;62859;53.906;27.430;2023-02-10T16:06:11;1016.7;;;3.5;55.4
74427;BME280;62859;53.906;27.430;2023-02-10T16:12:01;1016.8;;;3.5;55.4
74427;BME280;62859;53.906;27.430;2023-02-10T16:17:01;1016.8;;;3.5;55.7
74427;BME280;62859;53.906;27.430;2023-02-10T16:21:49;1016.8;;;3.4;55.9
74427;BME280;62859;53.906;27.430;2023-02-10T16:26:35;1016.8;;;3.4;56.1
74427;BME280;62859;53.906;27.430;2023-02-10T16:31:51;1016.9;;;3.4;57.1
74427;BME280;62859;53.906;27.430;2023-02-10T16:36:49;1016.9;;;3.4;56.1
74427;BME280;62859;53.906;27.430;2023-02-10T16:41:21;1016.9;;;3.4;56.1
74427;BME280;62859;53.906;27.430;2023-02-10T16:46:37;1017;;;3.3;56.2
74427;BME280;62859;53.906;27.430;2023-02-10T16:51:27;1016.9;;;3.2;56.8
74427;BME280;62859;53.906;27.430;2023-02-10T16:56:45;1016.8;;;3.1;57
74427;BME280;62859;53.906;27.430;2023-02-10T17:01:37;1016.8;;;3.1;57.3
74427;BME280;62859;53.906;27.430;2023-02-10T17:07:01;1016.9;;;3;57.5
74427;BME280;62859;53.906;27.430;2023-02-10T17:11:49;1016.9;;;3;57.5
74427;BME280;62859;53.906;27.430;2023-02-10T17:16:41;1016.9;;;3;57.6
74427;BME280;62859;53.906;27.430;2023-02-10T17:21:37;1017;;;3;57.5
74427;BME280;62859;53.906;27.430;2023-02-10T17:26:11;1017;;;2.9;57.5
74427;BME280;62859;53.906;27.430;2023-02-10T17:31:49;1017;;;2.9;57.5
74427;BME280;62859;53.906;27.430;2023-02-10T17:36:47;1017;;;2.9;57.6
74427;BME280;62859;53.906;27.430;2023-02-10T17:41:49;1017;;;2.8;57.6
74427;BME280;62859;53.906;27.430;2023-02-10T17:46:11;1017;;;2.8;57.8
74427;BME280;62859;53.906;27.430;2023-02-10T17:52:01;1017.1;;;2.9;57.7
74427;BME280;62859;53.906;27.430;2023-02-10T17:56:37;1017.1;;;2.8;57.4
74427;BME280;62859;53.906;27.430;2023-02-10T18:01:49;1017.1;;;2.8;57.5
74427;BME280;62859;53.906;27.430;2023-02-10T18:06:47;1017;;;2.8;57.5
74427;BME280;62859;53.906;27.430;2023-02-10T18:11:47;1017.1;;;2.8;57.6
74427;BME280;62859;53.906;27.430;2023-02-10T18:16:51;1017.1;;;2.7;57.7
74427;BME280;62859;53.906;27.430;2023-02-10T18:21:25;1017.1;;;2.7;57.9
74427;BME280;62859;53.906;27.430;2023-02-10T18:26:47;1017.1;;;2.6;58.4
74427;BME280;62859;53.906;27.430;2023-02-10T18:31:11;1017.1;;;2.6;58.6
74427;BME280;62859;53.906;27.430;2023-02-10T18:36:47;1017.1;;;2.6;58.7
74427;BME280;62859;53.906;27.430;2023-02-10T18:41:25;1016.9;;;2.5;58.9
74427;BME280;62859;53.906;27.430;2023-02-10T18:46:59;1016.9;;;2.5;59.1
74427;BME280;62859;53.906;27.430;2023-02-10T18:51:21;1016.9;;;2.6;59.1
74427;BME280;62859;53.906;27.430;2023-02-10T18:56:47;1016.9;;;2.6;59.1
74427;BME280;62859;53.906;27.430;2023-02-10T19:01:47;1016.9;;;2.6;59.2
74427;BME280;62859;53.906;27.430;2023-02-10T19:07:01;1016.9;;;2.5;59.4
74427;BME280;62859;53.906;27.430;2023-02-10T19:11:11;1016.9;;;2.5;59.5
74427;BME280;62859;53.906;27.430;2023-02-10T19:16:37;1016.9;;;2.6;59.5
74427;BME280;62859;53.906;27.430;2023-02-10T19:21:47;1016.9;;;2.5;59.6
74427;BME280;62859;53.906;27.430;2023-02-10T19:26:37;1016.9;;;2.5;59.8
74427;BME280;62859;53.906;27.430;2023-02-10T19:31:47;1016.8;;;2.4;59.7
74427;BME280;62859;53.906;27.430;2023-02-10T19:37:01;1016.9;;;2.4;59.8
74427;BME280;62859;53.906;27.430;2023-02-10T19:42:01;1016.9;;;2.4;59.6
74427;BME280;62859;53.906;27.430;2023-02-10T19:46:25;1016.9;;;2.4;59.6
74427;BME280;62859;53.906;27.430;2023-02-10T19:51:59;1016.8;;;2.4;59.8
74427;BME280;62859;53.906;27.430;2023-02-10T19:56:35;1016.8;;;2.3;59.9
74427;BME280;62859;53.906;27.430;2023-02-10T20:01:25;1016.8;;;2.4;60.2
74427;BME280;62859;53.906;27.430;2023-02-10T20:06:37;1016.7;;;2.4;60.3
74427;BME280;62859;53.906;27.430;2023-02-10T20:11:37;1016.6;;;2.4;60.2
74427;BME280;62859;53.906;27.430;2023-02-10T20:16:15;1016.6;;;2.4;60.3
74427;BME280;62859;53.906;27.430;2023-02-10T20:21:35;1016.7;;;2.4;60.3
74427;BME280;62859;53.906;27.430;2023-02-10T20:26:23;1016.7;;;2.4;60.2
74427;BME280;62859;53.906;27.430;2023-02-10T20:31:59;1016.7;;;2.4;60.3
74427;BME280;62859;53.906;27.430;2023-02-10T20:36:11;1016.7;;;2.4;60.2
74427;BME280;62859;53.906;27.430;2023-02-10T20:41:11;1016.7;;;2.4;60.2
74427;BME280;62859;53.906;27.430;2023-02-10T20:47:01;1016.7;;;2.4;60.4
74427;BME280;62859;53.906;27.430;2023-02-10T20:51:11;1016.6;;;2.4;60.1
74427;BME280;62859;53.906;27.430;2023-02-10T20:56:11;1016.6;;;2.4;60.1
74427;BME280;62859;53.906;27.430;2023-02-10T21:01:21;1016.6;;;2.4;60
74427;BME280;62859;53.906;27.430;2023-02-10T21:06:12;1016.6;;;2.4;59.6
74427;BME280;62859;53.906;27.430;2023-02-10T21:11:12;1016.6;;;2.3;59.7
74427;BME280;62859;53.906;27.430;2023-02-10T21:16:59;1016.5;;;2.3;59.8
74427;BME280;62859;53.906;27.430;2023-02-10T21:21:11;1016.5;;;2.2;59.8
74427;BME280;62859;53.906;27.430;2023-02-10T21:26:57;1016.6;;;2.2;60.1
74427;BME280;62859;53.906;27.430;2023-02-10T21:31:39;1016.6;;;2.3;60.2
74427;BME280;62859;53.906;27.430;2023-02-10T21:36:57;1016.6;;;2.3;60.6
74427;BME280;62859;53.906;27.430;2023-02-10T21:41:25;1016.6;;;2.2;60.8
74427;BME280;62859;53.906;27.430;2023-02-10T21:46:47;1016.5;;;2.3;61
74427;BME280;62859;53.906;27.430;2023-02-10T21:51:11;1016.5;;;2.3;61.2
74427;BME280;62859;53.906;27.430;2023-02-10T21:56:59;1016.6;;;2.3;61.4
74427;BME280;62859;53.906;27.430;2023-02-10T22:01:25;1016.5;;;2.3;61.4
74427;BME280;62859;53.906;27.430;2023-02-10T22:06:59;1016.5;;;2.3;61.2
74427;BME280;62859;53.906;27.430;2023-02-10T22:12:01;1016.4;;;2.4;61.1
74427;BME280;62859;53.906;27.430;2023-02-10T22:16:23;1016.5;;;2.5;60.7
74427;BME280;62859;53.906;27.430;2023-02-10T22:22:01;1016.4;;;2.6;60.5
74427;BME280;62859;53.906;27.430;2023-02-10T22:26:23;1016.5;;;2.5;60
74427;BME280;62859;53.906;27.430;2023-02-10T22:31:57;1016.5;;;2.5;59.9
74427;BME280;62859;53.906;27.430;2023-02-10T22:36:11;1016.6;;;2.5;60.1
74427;BME280;62859;53.906;27.430;2023-02-10T22:41:47;1016.6;;;2.5;60.6
74427;BME280;62859;53.906;27.430;2023-02-10T22:46:37;1016.5;;;2.5;60.8
74427;BME280;62859;53.906;27.430;2023-02-10T22:52:01;1016.4;;;2.5;61
74427;BME280;62859;53.906;27.430;2023-02-10T22:56:11;1016.4;;;2.6;61.1
74427;BME280;62859;53.906;27.430;2023-02-10T23:01:49;1016.4;;;2.6;61.1
74427;BME280;62859;53.906;27.430;2023-02-10T23:07:01;1016.2;;;2.6;61.4
74427;BME280;62859;53.906;27.430;2023-02-10T23:11:48;1016.2;;;2.7;61.1
74427;BME280;62859;53.906;27.430;2023-02-10T23:16:47;1016.1;;;2.8;60.9
74427;BME280;62859;53.906;27.430;2023-02-10T23:21:39;1016;;;2.8;60.7
74427;BME280;62859;53.906;27.430;2023-02-10T23:26:11;1016;;;2.8;60.5
74427;BME280;62859;53.906;27.430;2023-02-10T23:31:45;1016;;;2.8;60.3
74427;BME280;62859;53.906;27.430;2023-02-10T23:36:47;1016;;;2.8;60
74427;BME280;62859;53.906;27.430;2023-02-10T23:41:11;1016;;;2.8;60
74427;BME280;62859;53.906;27.430;2023-02-10T23:46:37;1016;;;2.9;60
74427;BME280;62859;53.906;27.430;2023-02-10T23:51:11;1015.9;;;2.9;60.1
74427;BME280;62859;53.906;27.430;2023-02-10T23:56:59;1015.9;;;2.9;60
